createdAt,value
2018-01-17T00:02:04.406Z,18.40
2018-01-17T00:04:32.732Z,18.40
2018-01-17T00:07:01.063Z,19.42
2018-01-17T00:09:29.481Z,18.40
2018-01-17T00:11:57.876Z,18.30
2018-01-17T00:14:26.176Z,18.45
2018-01-17T00:16:54.532Z,17.60
2018-01-17T00:19:22.855Z,17.77
2018-01-17T00:21:51.182Z,18.05
2018-01-17T00:24:19.517Z,16.05
2018-01-17T00:26:47.826Z,16.20
2018-01-17T00:29:33.250Z,16.08
2018-01-17T00:32:01.578Z,15.32
2018-01-17T00:34:29.904Z,16.73
2018-01-17T00:36:58.244Z,16.17
2018-01-17T00:39:26.591Z,16.42
2018-01-17T00:41:54.920Z,16.62
2018-01-17T00:44:23.325Z,16.83
2018-01-17T00:46:51.641Z,15.70
2018-01-17T00:49:19.971Z,16.48
2018-01-17T00:51:48.313Z,15.38
2018-01-17T00:54:16.634Z,14.85
2018-01-17T00:56:44.961Z,13.45
2018-01-17T00:59:13.320Z,14.80
2018-01-17T01:01:41.681Z,13.68
2018-01-17T01:04:10.033Z,13.40
2018-01-17T01:06:38.400Z,12.43
2018-01-17T01:09:06.799Z,13.45
2018-01-17T01:11:35.115Z,12.48
2018-01-17T01:14:03.478Z,12.88
2018-01-17T01:16:31.793Z,11.52
2018-01-17T01:19:00.112Z,12.07
2018-01-17T01:21:28.444Z,12.45
2018-01-17T01:23:56.778Z,11.75
2018-01-17T01:26:25.128Z,10.68
2018-01-17T01:28:53.513Z,10.88
2018-01-17T01:31:21.944Z,9.93
2018-01-17T01:33:50.274Z,10.18
2018-01-17T01:36:18.646Z,10.20
2018-01-17T01:38:46.957Z,9.30
2018-01-17T01:41:15.310Z,8.90
2018-01-17T01:43:43.653Z,9.65
2018-01-17T01:46:11.988Z,9.45
2018-01-17T01:48:52.626Z,9.75
2018-01-17T01:51:20.949Z,9.70
2018-01-17T01:53:49.279Z,8.65
2018-01-17T01:56:17.630Z,9.38
2018-01-17T01:58:46.046Z,8.65
2018-01-17T02:01:14.403Z,9.90
2018-01-17T02:03:42.774Z,9.35
2018-01-17T02:06:11.105Z,9.60
2018-01-17T02:08:39.444Z,9.45
2018-01-17T02:11:07.842Z,10.13
2018-01-17T02:13:36.204Z,10.18
2018-01-17T02:16:04.554Z,10.27
2018-01-17T02:18:32.884Z,9.27
2018-01-17T02:21:01.249Z,9.60
2018-01-17T02:23:29.574Z,10.93
2018-01-17T02:25:57.947Z,12.57
2018-01-17T02:28:26.281Z,11.80
2018-01-17T02:30:54.581Z,15.68
2018-01-17T02:33:23.003Z,14.82
2018-01-17T02:35:51.331Z,15.73
2018-01-17T02:38:19.658Z,15.20
2018-01-17T02:40:48.009Z,17.25
2018-01-17T02:43:16.342Z,17.30
2018-01-17T02:45:44.650Z,16.50
2018-01-17T02:48:12.997Z,17.00
2018-01-17T02:50:41.338Z,15.68
2018-01-17T02:53:09.695Z,16.45
2018-01-17T02:55:38.062Z,17.33
2018-01-17T02:58:06.359Z,16.60
2018-01-17T03:00:34.697Z,16.08
2018-01-17T03:03:03.050Z,15.15
2018-01-17T03:05:31.365Z,16.60
2018-01-17T03:07:59.698Z,14.55
2018-01-17T03:10:28.104Z,15.57
2018-01-17T03:12:56.462Z,14.68
2018-01-17T03:15:24.802Z,17.02
2018-01-17T03:17:53.152Z,15.38
2018-01-17T03:20:21.471Z,15.23
2018-01-17T03:22:49.811Z,14.90
2018-01-17T03:25:18.198Z,13.95
2018-01-17T03:27:46.516Z,13.65
2018-01-17T03:30:14.839Z,13.38
2018-01-17T03:32:43.228Z,13.90
2018-01-17T03:35:11.550Z,12.90
2018-01-17T03:37:39.882Z,12.27
2018-01-17T03:40:08.213Z,11.88
2018-01-17T03:42:36.544Z,12.23
2018-01-17T03:45:04.896Z,12.77
2018-01-17T03:47:33.249Z,10.95
2018-01-17T03:50:01.611Z,11.20
2018-01-17T03:52:29.958Z,11.73
2018-01-17T03:54:58.335Z,11.95
2018-01-17T03:57:26.674Z,12.13
2018-01-17T03:59:54.993Z,10.55
2018-01-17T04:02:23.413Z,11.98
2018-01-17T04:04:51.733Z,12.65
2018-01-17T04:07:20.047Z,13.85
2018-01-17T04:09:48.431Z,13.13
2018-01-17T04:12:16.768Z,13.05
2018-01-17T04:14:45.093Z,13.02
2018-01-17T04:17:13.434Z,11.70
2018-01-17T04:19:41.798Z,11.68
2018-01-17T04:22:10.120Z,12.30
2018-01-17T04:24:38.509Z,12.57
2018-01-17T04:27:06.806Z,12.23
2018-01-17T04:29:35.156Z,12.63
2018-01-17T04:32:03.518Z,14.32
2018-01-17T04:34:31.855Z,14.02
2018-01-17T04:37:00.180Z,13.20
2018-01-17T04:39:28.569Z,12.35
2018-01-17T04:41:56.908Z,13.65
2018-01-17T04:44:25.226Z,12.60
2018-01-17T04:46:53.656Z,12.13
2018-01-17T04:49:21.972Z,12.32
2018-01-17T04:51:50.329Z,12.65
2018-01-17T04:54:18.684Z,11.52
2018-01-17T04:56:47.001Z,11.77
2018-01-17T04:59:15.316Z,12.48
2018-01-17T05:01:43.705Z,11.20
2018-01-17T05:04:12.029Z,11.40
2018-01-17T05:06:40.371Z,12.05
2018-01-17T05:09:08.718Z,11.32
2018-01-17T05:11:37.055Z,13.02
2018-01-17T05:14:05.386Z,12.23
2018-01-17T05:16:33.786Z,13.32
2018-01-17T05:19:02.159Z,14.05
2018-01-17T05:21:30.512Z,14.82
2018-01-17T05:23:58.892Z,15.30
2018-01-17T05:26:27.208Z,15.65
2018-01-17T05:28:55.517Z,17.10
2018-01-17T05:31:23.866Z,16.27
2018-01-17T05:33:52.179Z,17.35
2018-01-17T05:36:20.508Z,15.57
2018-01-17T05:38:48.876Z,14.63
2018-01-17T05:41:17.196Z,23.60
2018-01-17T05:43:45.505Z,18.73
2018-01-17T05:46:13.824Z,18.15
2018-01-17T05:48:42.175Z,16.98
2018-01-17T05:51:10.496Z,18.33
2018-01-17T05:53:38.815Z,15.43
2018-01-17T05:56:07.161Z,14.20
2018-01-17T05:58:35.516Z,14.00
2018-01-17T06:01:03.926Z,14.75
2018-01-17T06:03:32.318Z,14.32
2018-01-17T06:06:00.775Z,12.80
2018-01-17T06:08:29.117Z,14.20
2018-01-17T06:10:57.444Z,15.73
2018-01-17T06:13:25.770Z,13.73
2018-01-17T06:15:54.154Z,13.57
2018-01-17T06:18:22.513Z,13.98
2018-01-17T06:20:50.855Z,14.15
2018-01-17T06:23:19.220Z,12.65
2018-01-17T06:25:47.574Z,12.40
2018-01-17T06:28:15.912Z,11.18
2018-01-17T06:30:44.310Z,11.35
2018-01-17T06:33:12.660Z,12.23
2018-01-17T06:35:40.990Z,11.88
2018-01-17T06:38:09.378Z,12.50
2018-01-17T06:40:37.727Z,11.12
2018-01-17T06:43:06.054Z,10.30
2018-01-17T06:45:34.399Z,8.90
2018-01-17T06:48:02.759Z,10.13
2018-01-17T06:50:31.112Z,8.98
2018-01-17T06:52:59.483Z,11.35
2018-01-17T06:55:27.854Z,9.93
2018-01-17T06:57:56.224Z,8.43
2018-01-17T07:00:24.586Z,8.32
2018-01-17T07:02:52.944Z,8.90
2018-01-17T07:05:21.292Z,7.70
2018-01-17T07:07:49.655Z,7.12
2018-01-17T07:10:17.986Z,7.65
2018-01-17T07:12:46.368Z,7.85
2018-01-17T07:15:14.758Z,8.60
2018-01-17T07:17:43.101Z,8.80
2018-01-17T07:20:11.510Z,8.85
2018-01-17T07:22:39.868Z,8.60
2018-01-17T07:25:08.187Z,7.90
2018-01-17T07:27:36.542Z,8.98
2018-01-17T07:30:06.965Z,7.72
2018-01-17T07:32:39.009Z,9.25
2018-01-17T07:35:07.510Z,8.35
2018-01-17T07:37:35.891Z,8.73
2018-01-17T07:40:04.351Z,8.75
2018-01-17T07:42:32.741Z,8.05
2018-01-17T07:45:01.106Z,8.52
2018-01-17T07:47:29.441Z,9.02
2018-01-17T07:49:57.869Z,9.90
2018-01-17T07:52:26.227Z,10.00
2018-01-17T07:55:14.968Z,9.48
2018-01-17T07:57:48.836Z,8.20
2018-01-17T08:00:17.250Z,7.62
2018-01-17T08:02:45.616Z,8.10
2018-01-17T08:05:14.042Z,7.68
2018-01-17T08:07:42.440Z,9.25
2018-01-17T08:10:11.125Z,8.57
2018-01-17T08:12:39.482Z,9.55
2018-01-17T08:15:11.582Z,10.07
2018-01-17T08:17:40.437Z,8.63
2018-01-17T08:20:08.834Z,9.45
2018-01-17T08:22:37.235Z,9.13
2018-01-17T08:25:05.585Z,8.45
2018-01-17T08:27:33.979Z,8.70
2018-01-17T08:30:02.401Z,8.00
2018-01-17T08:32:30.787Z,8.48
2018-01-17T08:34:59.168Z,7.75
2018-01-17T08:37:27.601Z,8.57
2018-01-17T08:39:55.970Z,7.87
2018-01-17T08:42:24.355Z,8.88
2018-01-17T08:44:51.293Z,8.52
2018-01-17T08:47:19.779Z,8.07
2018-01-17T08:49:48.243Z,7.80
2018-01-17T08:52:16.691Z,7.60
2018-01-17T08:54:45.099Z,7.87
2018-01-17T08:57:13.441Z,9.20
2018-01-17T08:59:41.808Z,7.93
2018-01-17T09:02:10.225Z,8.90
2018-01-17T09:04:38.586Z,9.52
2018-01-17T09:07:05.355Z,9.75
2018-01-17T09:09:33.700Z,9.52
2018-01-17T09:12:02.088Z,8.23
2018-01-17T09:14:30.465Z,8.70
2018-01-17T09:16:58.805Z,9.18
2018-01-17T09:19:27.158Z,8.48
2018-01-17T09:21:55.550Z,9.52
2018-01-17T09:24:23.917Z,8.85
2018-01-17T09:26:52.281Z,9.50
2018-01-17T09:29:20.669Z,10.55
2018-01-17T09:31:49.038Z,8.90
2018-01-17T09:34:17.418Z,9.97
2018-01-17T09:36:45.885Z,10.10
2018-01-17T09:39:14.192Z,8.20
2018-01-17T09:41:42.499Z,8.73
2018-01-17T09:44:10.916Z,8.80
2018-01-17T09:46:39.225Z,9.30
2018-01-17T09:49:07.576Z,8.63
2018-01-17T09:51:35.957Z,11.60
2018-01-17T09:54:04.356Z,9.23
2018-01-17T09:56:32.744Z,8.83
2018-01-17T09:59:01.140Z,10.00
2018-01-17T10:01:29.483Z,7.10
2018-01-17T10:03:57.834Z,8.67
2018-01-17T10:06:26.222Z,8.10
2018-01-17T10:08:54.585Z,6.73
2018-01-17T10:11:22.953Z,7.40
2018-01-17T10:13:51.326Z,6.60
2018-01-17T10:16:19.660Z,7.70
2018-01-17T10:18:47.980Z,11.53
2018-01-17T10:21:16.405Z,11.87
2018-01-17T10:23:44.804Z,11.73
2018-01-17T10:26:13.208Z,13.13
2018-01-17T10:28:41.571Z,12.40
2018-01-17T10:31:09.915Z,13.20
2018-01-17T10:33:38.750Z,15.83
2018-01-17T10:36:07.207Z,15.10
2018-01-17T10:38:35.581Z,13.87
2018-01-17T10:41:03.940Z,14.97
2018-01-17T10:43:32.337Z,15.13
2018-01-17T10:46:00.721Z,14.23
2018-01-17T10:48:29.084Z,13.63
2018-01-17T10:50:57.523Z,14.30
2018-01-17T10:53:25.889Z,16.05
2018-01-17T10:55:52.584Z,15.70
2018-01-17T10:58:19.353Z,15.00
2018-01-17T11:00:46.174Z,15.90
2018-01-17T11:03:14.500Z,15.20
2018-01-17T11:05:42.940Z,15.57
2018-01-17T11:08:11.284Z,18.60
2018-01-17T11:10:39.720Z,18.07
2018-01-17T11:13:08.094Z,17.77
2018-01-17T11:15:36.438Z,16.73
2018-01-17T11:18:04.792Z,18.50
2018-01-17T11:20:33.208Z,16.20
2018-01-17T11:23:01.625Z,17.30
2018-01-17T11:25:30.070Z,18.37
2018-01-17T11:27:58.476Z,17.80
2018-01-17T11:30:27.782Z,17.12
2018-01-17T11:32:56.168Z,17.07
2018-01-17T11:35:24.593Z,16.20
2018-01-17T11:37:52.904Z,9.52
2018-01-17T11:40:21.289Z,2.78
2018-01-17T11:42:49.797Z,0.95
2018-01-17T11:45:18.166Z,1.15
2018-01-17T11:47:46.521Z,0.93
2018-01-17T11:50:14.902Z,0.80
2018-01-17T11:52:43.233Z,0.52
2018-01-17T11:55:11.715Z,0.55
2018-01-17T11:57:40.143Z,0.70
2018-01-17T12:00:08.554Z,0.50
2018-01-17T12:02:36.943Z,0.40
2018-01-17T12:05:05.319Z,0.77
2018-01-17T12:07:33.696Z,0.68
2018-01-17T12:10:02.090Z,0.47
2018-01-17T12:12:29.597Z,0.70
2018-01-17T12:14:56.287Z,0.43
2018-01-17T12:17:23.759Z,0.60
2018-01-17T12:19:50.546Z,0.50
2018-01-17T12:22:17.229Z,0.95
2018-01-17T12:24:43.983Z,0.80
2018-01-17T12:27:11.521Z,1.20
2018-01-17T12:29:38.233Z,0.85
2018-01-17T12:32:05.009Z,0.77
2018-01-17T12:34:31.746Z,1.40
2018-01-17T12:37:00.110Z,0.90
2018-01-17T12:39:28.437Z,0.80
2018-01-17T12:41:56.830Z,0.60
2018-01-17T12:44:25.163Z,0.55
2018-01-17T12:46:53.494Z,0.30
2018-01-17T12:49:21.832Z,0.70
2018-01-17T12:51:50.305Z,0.60
2018-01-17T12:54:18.632Z,0.50
2018-01-17T12:56:46.992Z,0.40
2018-01-17T12:59:15.321Z,0.40
2018-01-17T13:01:43.624Z,0.60
2018-01-17T13:04:12.012Z,0.50
2018-01-17T13:06:40.314Z,0.60
2018-01-17T13:09:08.661Z,0.52
2018-01-17T13:11:36.986Z,0.60
2018-01-17T13:14:05.317Z,0.60
2018-01-17T13:16:33.677Z,0.65
2018-01-17T13:19:02.024Z,0.85
2018-01-17T13:21:30.349Z,0.80
2018-01-17T13:23:58.701Z,0.82
2018-01-17T13:26:27.107Z,0.82
2018-01-17T13:28:55.438Z,2.10
2018-01-17T13:31:23.784Z,1.23
2018-01-17T13:33:52.168Z,1.12
2018-01-17T13:36:20.490Z,1.10
2018-01-17T13:38:48.801Z,1.30
2018-01-17T13:41:17.209Z,1.05
2018-01-17T13:43:45.559Z,1.10
2018-01-17T13:46:13.900Z,0.80
2018-01-17T13:48:42.306Z,0.62
2018-01-17T13:51:10.608Z,0.70
2018-01-17T13:53:38.925Z,1.10
2018-01-17T13:56:07.314Z,1.10
2018-01-17T13:58:35.625Z,1.20
2018-01-17T14:01:04.003Z,1.05
2018-01-17T14:03:32.353Z,1.55
2018-01-17T14:06:00.637Z,1.40
2018-01-17T14:08:28.954Z,1.10
2018-01-17T14:10:57.301Z,0.90
2018-01-17T14:13:25.649Z,0.90
2018-01-17T14:15:53.949Z,1.35
2018-01-17T14:18:22.415Z,1.70
2018-01-17T14:20:50.809Z,0.70
2018-01-17T14:23:19.132Z,1.20
2018-01-17T14:25:47.504Z,1.05
2018-01-17T14:28:15.813Z,1.85
2018-01-17T14:30:44.157Z,0.80
2018-01-17T14:33:13.835Z,1.12
2018-01-17T14:35:43.098Z,1.80
2018-01-17T14:38:12.073Z,0.98
2018-01-17T14:40:40.413Z,1.98
2018-01-17T14:43:14.716Z,0.82
2018-01-17T14:45:43.060Z,1.12
2018-01-17T14:48:11.411Z,1.25
2018-01-17T14:50:39.742Z,1.25
2018-01-17T14:53:08.082Z,1.30
2018-01-17T14:55:36.439Z,2.20
2018-01-17T14:58:04.761Z,1.00
2018-01-17T15:00:33.106Z,1.45
2018-01-17T15:03:01.420Z,1.62
2018-01-17T15:05:29.735Z,0.55
2018-01-17T15:07:58.137Z,0.95
2018-01-17T15:10:26.592Z,1.30
2018-01-17T15:12:54.906Z,1.23
2018-01-17T15:15:23.374Z,1.15
2018-01-17T15:17:51.829Z,2.03
2018-01-17T15:20:20.179Z,1.37
2018-01-17T15:22:48.585Z,1.02
2018-01-17T15:25:16.960Z,1.23
2018-01-17T15:27:45.334Z,0.65
2018-01-17T15:30:13.741Z,1.05
2018-01-17T15:32:42.166Z,1.02
2018-01-17T15:35:10.500Z,0.85
2018-01-17T15:37:38.889Z,0.90
2018-01-17T15:40:07.235Z,1.15
2018-01-17T15:42:35.573Z,0.98
2018-01-17T15:45:03.924Z,1.02
2018-01-17T15:47:32.255Z,0.82
2018-01-17T15:50:00.682Z,0.85
2018-01-17T15:52:29.093Z,2.40
2018-01-17T15:54:57.419Z,2.42
2018-01-17T15:57:27.641Z,1.30
2018-01-17T15:59:56.008Z,3.25
2018-01-17T16:02:24.378Z,1.75
2018-01-17T16:04:52.721Z,1.58
2018-01-17T16:07:21.102Z,1.45
2018-01-17T16:09:49.430Z,1.67
2018-01-17T16:12:17.766Z,1.98
2018-01-17T16:14:46.176Z,1.37
2018-01-17T16:17:14.553Z,2.25
2018-01-17T16:19:42.914Z,2.22
2018-01-17T16:22:11.281Z,1.10
2018-01-17T16:24:39.677Z,2.05
2018-01-17T16:27:07.994Z,1.35
2018-01-17T16:29:36.356Z,1.77
2018-01-17T16:32:04.714Z,0.65
2018-01-17T16:34:33.129Z,1.20
2018-01-17T16:37:01.532Z,1.05
2018-01-17T16:39:29.881Z,0.80
2018-01-17T16:41:58.211Z,1.30
2018-01-17T16:44:26.578Z,0.70
2018-01-17T16:46:54.947Z,0.90
2018-01-17T16:49:23.275Z,0.90
2018-01-17T16:51:51.642Z,1.30
2018-01-17T16:54:19.949Z,1.15
2018-01-17T16:56:48.249Z,1.23
2018-01-17T16:59:16.663Z,1.60
2018-01-17T17:01:44.997Z,0.98
2018-01-17T17:04:13.326Z,1.10
2018-01-17T17:06:41.668Z,0.98
2018-01-17T17:09:09.985Z,0.73
2018-01-17T17:11:38.317Z,1.20
2018-01-17T17:14:06.715Z,0.80
2018-01-17T17:16:35.089Z,1.20
2018-01-17T17:19:03.437Z,0.70
2018-01-17T17:21:31.790Z,1.17
2018-01-17T17:24:00.159Z,1.60
2018-01-17T17:26:28.525Z,1.45
2018-01-17T17:28:56.910Z,1.23
2018-01-17T17:31:25.340Z,1.60
2018-01-17T17:33:53.840Z,2.87
2018-01-17T17:36:22.177Z,2.33
2018-01-17T17:38:49.647Z,2.53
2018-01-17T17:41:16.352Z,2.58
2018-01-17T17:43:43.118Z,2.10
2018-01-17T17:46:10.525Z,2.10
2018-01-17T17:48:37.246Z,2.15
2018-01-17T17:51:03.955Z,2.53
2018-01-17T17:53:31.364Z,2.60
2018-01-17T17:55:58.038Z,2.22
2018-01-17T17:58:24.792Z,3.53
2018-01-17T18:00:55.931Z,3.42
2018-01-17T18:03:22.645Z,5.70
2018-01-17T18:05:49.396Z,3.92
2018-01-17T18:08:16.137Z,8.52
2018-01-17T18:10:42.859Z,5.75
2018-01-17T18:13:09.606Z,4.07
2018-01-17T18:15:36.362Z,2.97
2018-01-17T18:18:03.122Z,2.15
2018-01-17T18:20:29.817Z,1.60
2018-01-17T18:22:57.227Z,1.37
2018-01-17T18:25:23.962Z,1.95
2018-01-17T18:27:50.733Z,1.30
2018-01-17T18:30:17.421Z,1.23
2018-01-17T18:32:44.126Z,1.15
2018-01-17T18:35:10.826Z,1.25
2018-01-17T18:37:37.544Z,2.20
2018-01-17T18:40:04.249Z,1.48
2018-01-17T18:42:31.951Z,1.60
2018-01-17T18:44:58.651Z,1.20
2018-01-17T18:47:25.375Z,1.23
2018-01-17T18:49:52.086Z,1.40
2018-01-17T18:52:19.590Z,1.90
2018-01-17T18:54:46.275Z,1.90
2018-01-17T18:57:13.745Z,2.00
2018-01-17T18:59:41.164Z,1.42
2018-01-17T19:02:07.904Z,1.40
2018-01-17T19:04:34.675Z,1.58
2018-01-17T19:07:02.145Z,1.12
2018-01-17T19:09:29.570Z,1.02
2018-01-17T19:11:56.303Z,1.10
2018-01-17T19:14:23.080Z,1.00
2018-01-17T19:16:50.206Z,0.98
2018-01-17T19:19:16.941Z,0.70
2018-01-17T19:21:43.797Z,1.15
2018-01-17T19:24:10.611Z,1.25
2018-01-17T19:26:37.497Z,0.90
2018-01-17T19:29:04.216Z,2.10
2018-01-17T19:31:30.935Z,1.10
2018-01-17T19:33:58.390Z,1.48
2018-01-17T19:36:25.808Z,1.40
2018-01-17T19:38:53.366Z,1.70
2018-01-17T19:41:20.137Z,1.67
2018-01-17T19:43:46.977Z,1.70
2018-01-17T19:46:13.715Z,3.80
2018-01-17T19:48:40.477Z,1.70
2018-01-17T19:51:07.984Z,2.00
2018-01-17T19:53:34.774Z,2.60
2018-01-17T19:56:01.568Z,2.05
2018-01-17T19:58:28.301Z,2.03
2018-01-17T20:00:54.988Z,1.95
2018-01-17T20:03:21.741Z,1.95
2018-01-17T20:05:48.488Z,2.42
2018-01-17T20:08:15.241Z,2.65
2018-01-17T20:10:41.994Z,2.67
2018-01-17T20:13:08.690Z,2.45
2018-01-17T20:15:35.474Z,2.70
2018-01-17T20:18:02.166Z,2.30
2018-01-17T20:20:28.882Z,2.83
2018-01-17T20:23:02.423Z,2.35
2018-01-17T20:25:29.119Z,2.10
2018-01-17T20:27:56.598Z,2.08
2018-01-17T20:30:24.115Z,2.03
2018-01-17T20:32:50.824Z,1.73
2018-01-17T20:35:17.611Z,1.87
2018-01-17T20:37:45.051Z,1.05
2018-01-17T20:40:11.774Z,1.30
2018-01-17T20:42:38.497Z,0.77
2018-01-17T20:45:06.042Z,1.10
2018-01-17T20:47:33.523Z,0.85
2018-01-17T20:50:00.986Z,2.00
2018-01-17T20:52:28.504Z,1.20
2018-01-17T20:54:55.187Z,1.15
2018-01-17T20:57:22.648Z,0.62
2018-01-17T20:59:50.122Z,0.70
2018-01-17T21:02:16.845Z,0.50
2018-01-17T21:04:44.281Z,0.70
2018-01-17T21:07:10.994Z,0.77
2018-01-17T21:09:37.704Z,0.80
2018-01-17T21:12:05.210Z,0.75
2018-01-17T21:14:32.026Z,1.30
2018-01-17T21:16:59.442Z,1.20
2018-01-17T21:19:26.199Z,1.25
2018-01-17T21:21:53.682Z,1.37
2018-01-17T21:24:20.392Z,1.60
2018-01-17T21:26:47.145Z,1.35
2018-01-17T21:29:13.922Z,1.75
2018-01-17T21:31:40.653Z,1.40
2018-01-17T21:34:07.459Z,1.60
2018-01-17T21:36:34.234Z,1.15
2018-01-17T21:39:01.759Z,1.37
2018-01-17T21:41:28.496Z,1.58
2018-01-17T21:44:01.276Z,1.80
2018-01-17T21:46:28.048Z,1.10
2018-01-17T21:48:54.781Z,1.60
2018-01-17T21:51:21.534Z,1.70
2018-01-17T21:53:48.283Z,1.50
2018-01-17T21:56:14.996Z,1.20
2018-01-17T21:58:41.706Z,1.15
2018-01-17T22:01:08.522Z,1.50
2018-01-17T22:03:35.326Z,1.10
2018-01-17T22:06:02.135Z,1.40
2018-01-17T22:08:28.818Z,1.37
2018-01-17T22:10:55.545Z,1.20
2018-01-17T22:13:22.360Z,1.35
2018-01-17T22:15:49.819Z,1.08
2018-01-17T22:18:17.236Z,0.95
2018-01-17T22:20:44.092Z,1.30
2018-01-17T22:23:10.890Z,1.87
2018-01-17T22:25:38.386Z,1.80
2018-01-17T22:28:05.113Z,1.52
2018-01-17T22:30:31.909Z,1.17
2018-01-17T22:32:58.724Z,1.10
2018-01-17T22:35:25.439Z,1.35
2018-01-17T22:37:52.176Z,1.30
2018-01-17T22:40:18.865Z,1.25
2018-01-17T22:42:45.822Z,0.90
2018-01-17T22:45:12.606Z,1.02
2018-01-17T22:47:40.146Z,0.90
2018-01-17T22:50:06.866Z,0.88
2018-01-17T22:52:33.789Z,0.73
2018-01-17T22:55:02.611Z,0.73
2018-01-17T22:57:30.410Z,0.80
2018-01-17T22:59:58.087Z,0.75
2018-01-17T23:02:24.798Z,1.25
2018-01-17T23:04:51.486Z,0.68
2018-01-17T23:07:18.225Z,0.85
2018-01-17T23:09:45.825Z,1.20
2018-01-17T23:12:12.646Z,0.70
2018-01-17T23:14:39.397Z,0.90
2018-01-17T23:17:06.192Z,0.77
2018-01-17T23:19:32.951Z,0.70
2018-01-17T23:22:00.436Z,1.20
2018-01-17T23:24:27.089Z,1.02
2018-01-17T23:26:53.771Z,0.90
2018-01-17T23:29:20.434Z,1.05
2018-01-17T23:31:47.158Z,1.20
2018-01-17T23:34:13.854Z,0.88
2018-01-17T23:36:40.703Z,0.95
2018-01-17T23:39:07.415Z,1.15
2018-01-17T23:41:34.095Z,0.50
2018-01-17T23:44:00.789Z,0.60
2018-01-17T23:46:27.463Z,0.43
2018-01-17T23:48:54.190Z,0.88
2018-01-17T23:51:21.646Z,0.60
2018-01-17T23:53:49.090Z,0.65
2018-01-17T23:56:15.795Z,0.68
2018-01-17T23:58:42.459Z,0.80
